Time;durP1;ratioP1;P1;durP2;ratioP2;P2;SDS_P1;SDS_P2;PMS_P1;PMS_P2;Temp;Humidity;BMP_temperature;BMP_pressure;BME280_temperature;BME280_humidity;BME280_pressure;Samples;Min_cycle;Max_cycle;Signal;HPM_P1;HPM_P2
2023/04/17 00:02:24;;;;;;;39.92;17.83;;;;;;;;;;5016374;28;20061;-76
2023/04/17 00:04:52;;;;;;;35.33;18.00;;;;;;;;;;5013754;28;20053;-75
2023/04/17 00:07:22;;;;;;;42.10;17.95;;;;;;;;;;5019501;28;20865;-75
2023/04/17 00:09:49;;;;;;;40.08;17.55;;;;;;;;;;5005474;28;20068;-75
2023/04/17 00:12:16;;;;;;;38.85;17.38;;;;;;;;;;5014108;28;20603;-76
2023/04/17 00:14:42;;;;;;;39.38;17.65;;;;;;;;;;5011103;28;20092;-75
2023/04/17 00:17:08;;;;;;;40.15;17.98;;;;;;;;;;5023855;28;20979;-75
2023/04/17 00:19:35;;;;;;;40.80;19.15;;;;;;;;;;5024042;28;20066;-76
2023/04/17 00:22:01;;;;;;;43.88;18.95;;;;;;;;;;5020876;28;20050;-77
2023/04/17 00:24:27;;;;;;;44.15;18.77;;;;;;;;;;5027275;28;20053;-77
2023/04/17 00:26:55;;;;;;;40.70;18.73;;;;;;;;;;5026300;28;20048;-78
2023/04/17 00:29:21;;;;;;;41.47;17.23;;;;;;;;;;5012546;28;20054;-77
2023/04/17 00:31:47;;;;;;;38.80;19.00;;;;;;;;;;5009498;28;20050;-77
2023/04/17 00:34:14;;;;;;;39.03;17.63;;;;;;;;;;5007321;28;20074;-78
2023/04/17 00:36:40;;;;;;;40.40;18.60;;;;;;;;;;5024362;28;20050;-77
2023/04/17 00:39:06;;;;;;;54.35;17.98;;;;;;;;;;5012543;28;20140;-77
2023/04/17 00:41:33;;;;;;;35.95;16.20;;;;;;;;;;5025587;28;20058;-77
2023/04/17 00:43:59;;;;;;;35.00;17.30;;;;;;;;;;5026699;28;20170;-77
2023/04/17 00:46:26;;;;;;;34.80;15.65;;;;;;;;;;5013886;28;20057;-78
2023/04/17 00:48:52;;;;;;;34.53;16.30;;;;;;;;;;5023718;28;20078;-77
2023/04/17 00:51:19;;;;;;;35.20;16.33;;;;;;;;;;5024792;28;20069;-77
2023/04/17 00:53:45;;;;;;;36.60;15.55;;;;;;;;;;5025092;28;20061;-77
2023/04/17 00:56:11;;;;;;;37.17;15.85;;;;;;;;;;5012626;28;20109;-77
2023/04/17 00:58:39;;;;;;;32.47;15.23;;;;;;;;;;5006815;28;20066;-77
2023/04/17 01:01:05;;;;;;;30.08;13.63;;;;;;;;;;5013254;28;20140;-77
2023/04/17 01:03:32;;;;;;;30.95;13.63;;;;;;;;;;5026040;28;20061;-77
2023/04/17 01:05:59;;;;;;;27.00;13.63;;;;;;;;;;5011233;28;20058;-77
2023/04/17 01:08:25;;;;;;;27.77;13.95;;;;;;;;;;5005313;28;20054;-77
2023/04/17 01:10:51;;;;;;;24.63;12.95;;;;;;;;;;5016762;28;20069;-78
2023/04/17 01:13:18;;;;;;;28.00;12.82;;;;;;;;;;5025409;28;20062;-78
2023/04/17 01:15:45;;;;;;;27.02;13.57;;;;;;;;;;5024601;28;20132;-77
2023/04/17 01:18:12;;;;;;;28.10;13.02;;;;;;;;;;5026131;28;20153;-77
2023/04/17 01:20:38;;;;;;;27.80;13.07;;;;;;;;;;5024707;28;20057;-78
2023/04/17 01:23:05;;;;;;;26.55;13.30;;;;;;;;;;5003922;28;20176;-75
2023/04/17 01:25:31;;;;;;;25.75;12.60;;;;;;;;;;5004500;28;20054;-75
2023/04/17 01:27:57;;;;;;;29.27;13.40;;;;;;;;;;5003438;28;20058;-76
2023/04/17 01:30:24;;;;;;;26.58;13.07;;;;;;;;;;5006334;28;20066;-75
2023/04/17 01:32:52;;;;;;;27.45;12.68;;;;;;;;;;5009641;28;20042;-75
2023/04/17 01:35:18;;;;;;;23.83;12.15;;;;;;;;;;5020000;28;20402;-75
2023/04/17 01:37:45;;;;;;;22.67;11.93;;;;;;;;;;5004822;28;20145;-75
2023/04/17 01:40:11;;;;;;;23.85;11.50;;;;;;;;;;5011751;28;20095;-75
2023/04/17 01:42:38;;;;;;;25.33;11.23;;;;;;;;;;5023818;28;20058;-75
2023/04/17 01:45:04;;;;;;;23.35;11.48;;;;;;;;;;5014683;28;20659;-75
2023/04/17 01:47:31;;;;;;;23.00;11.40;;;;;;;;;;5009031;28;20066;-75
2023/04/17 01:49:58;;;;;;;25.13;11.50;;;;;;;;;;5004071;28;20069;-75
2023/04/17 01:52:24;;;;;;;21.55;11.38;;;;;;;;;;5019728;28;20050;-75
2023/04/17 01:54:51;;;;;;;22.75;11.00;;;;;;;;;;5017927;28;20141;-75
2023/04/17 01:57:17;;;;;;;23.45;11.50;;;;;;;;;;5015942;28;20054;-76
2023/04/17 01:59:43;;;;;;;25.80;11.35;;;;;;;;;;5009900;28;20497;-75
2023/04/17 02:02:10;;;;;;;23.42;11.15;;;;;;;;;;5015885;28;20054;-76
2023/04/17 02:04:36;;;;;;;26.50;12.65;;;;;;;;;;5021730;28;20053;-75
2023/04/17 02:07:03;;;;;;;24.45;11.52;;;;;;;;;;5006413;28;20516;-75
2023/04/17 02:09:29;;;;;;;24.08;12.05;;;;;;;;;;5016395;28;20050;-75
2023/04/17 02:11:56;;;;;;;27.48;12.40;;;;;;;;;;5004202;28;20062;-75
2023/04/17 02:14:23;;;;;;;24.42;12.30;;;;;;;;;;5021769;28;20061;-75
2023/04/17 02:16:49;;;;;;;27.67;12.57;;;;;;;;;;5022061;28;20953;-75
2023/04/17 02:19:16;;;;;;;27.88;12.55;;;;;;;;;;5022022;28;20516;-75
2023/04/17 02:21:42;;;;;;;25.30;12.35;;;;;;;;;;5010995;28;20053;-75
2023/04/17 02:24:08;;;;;;;26.88;12.63;;;;;;;;;;5022349;28;20058;-75
2023/04/17 02:26:35;;;;;;;29.88;12.43;;;;;;;;;;5009413;28;20077;-75
2023/04/17 02:29:02;;;;;;;24.63;11.82;;;;;;;;;;5016830;28;20058;-75
2023/04/17 02:31:28;;;;;;;26.55;11.82;;;;;;;;;;5024456;28;20050;-75
2023/04/17 02:33:55;;;;;;;29.52;12.93;;;;;;;;;;5023749;28;20082;-76
2023/04/17 02:36:21;;;;;;;27.65;12.60;;;;;;;;;;5025081;28;20084;-75
2023/04/17 02:38:47;;;;;;;31.13;13.55;;;;;;;;;;5017922;28;20064;-75
2023/04/17 02:41:14;;;;;;;30.23;13.68;;;;;;;;;;5025548;28;20089;-75
2023/04/17 02:43:40;;;;;;;29.02;13.40;;;;;;;;;;5023748;28;20050;-75
2023/04/17 02:46:07;;;;;;;27.80;12.75;;;;;;;;;;5014251;28;20054;-75
2023/04/17 02:48:33;;;;;;;26.88;11.98;;;;;;;;;;5004842;28;20050;-75
2023/04/17 02:50:59;;;;;;;29.83;13.45;;;;;;;;;;5002055;28;20861;-75
2023/04/17 02:53:26;;;;;;;28.13;13.68;;;;;;;;;;5001024;28;20879;-75
2023/04/17 02:55:52;;;;;;;29.67;13.45;;;;;;;;;;5015209;28;20060;-75
2023/04/17 02:58:18;;;;;;;27.67;13.18;;;;;;;;;;5016776;28;20050;-75
2023/04/17 03:00:45;;;;;;;28.80;13.35;;;;;;;;;;5021965;28;20058;-75
2023/04/17 03:03:11;;;;;;;29.55;14.13;;;;;;;;;;5020293;28;20892;-75
2023/04/17 03:05:38;;;;;;;27.92;13.75;;;;;;;;;;5022403;28;20152;-76
2023/04/17 03:08:05;;;;;;;30.23;14.82;;;;;;;;;;5025239;28;20061;-75
2023/04/17 03:10:31;;;;;;;29.80;14.65;;;;;;;;;;5026400;28;20065;-75
2023/04/17 03:12:58;;;;;;;30.15;13.93;;;;;;;;;;5006689;28;20155;-75
2023/04/17 03:15:24;;;;;;;30.27;14.02;;;;;;;;;;5007752;28;20054;-75
2023/04/17 03:17:50;;;;;;;30.05;14.68;;;;;;;;;;5025294;28;20547;-75
2023/04/17 03:20:17;;;;;;;28.08;14.30;;;;;;;;;;5015984;28;20062;-75
2023/04/17 03:22:44;;;;;;;28.40;14.13;;;;;;;;;;5007034;28;20050;-75
2023/04/17 03:25:10;;;;;;;30.27;14.20;;;;;;;;;;5009339;28;20161;-75
2023/04/17 03:27:37;;;;;;;28.02;14.73;;;;;;;;;;5025911;28;20053;-75
2023/04/17 03:30:04;;;;;;;28.02;14.13;;;;;;;;;;5025486;28;20046;-75
2023/04/17 03:32:31;;;;;;;31.05;15.18;;;;;;;;;;5027203;28;20092;-75
2023/04/17 03:34:58;;;;;;;33.65;15.52;;;;;;;;;;5025980;28;20116;-75
2023/04/17 03:37:24;;;;;;;30.63;14.75;;;;;;;;;;5024724;28;20054;-75
2023/04/17 03:39:50;;;;;;;30.90;15.15;;;;;;;;;;5007095;28;20162;-75
2023/04/17 03:42:17;;;;;;;30.42;14.38;;;;;;;;;;5007785;28;20069;-75
2023/04/17 03:44:44;;;;;;;33.47;16.00;;;;;;;;;;5024832;28;20112;-75
2023/04/17 03:47:10;;;;;;;29.90;14.27;;;;;;;;;;5008662;28;20054;-75
2023/04/17 03:49:36;;;;;;;32.38;15.25;;;;;;;;;;5011423;28;20061;-75
2023/04/17 03:52:03;;;;;;;30.23;14.43;;;;;;;;;;5006391;28;20608;-75
2023/04/17 03:54:34;;;;;;;34.45;15.23;;;;;;;;;;5017427;28;20077;-75
2023/04/17 03:57:01;;;;;;;32.38;14.52;;;;;;;;;;5023780;28;20065;-75
2023/04/17 03:59:28;;;;;;;28.65;14.20;;;;;;;;;;5025546;28;20132;-75
2023/04/17 04:01:55;;;;;;;33.42;16.17;;;;;;;;;;5024145;28;20072;-75
2023/04/17 04:04:22;;;;;;;30.95;15.77;;;;;;;;;;5026042;28;20137;-75
2023/04/17 04:06:48;;;;;;;36.35;14.95;;;;;;;;;;5023920;28;20058;-75
2023/04/17 04:09:15;;;;;;;32.35;15.57;;;;;;;;;;5026068;28;20053;-75
2023/04/17 04:11:41;;;;;;;27.13;14.18;;;;;;;;;;5024058;28;20053;-75
2023/04/17 04:14:07;;;;;;;31.65;14.05;;;;;;;;;;5025403;28;20062;-75
2023/04/17 04:16:34;;;;;;;35.22;15.68;;;;;;;;;;5026028;28;20061;-75
2023/04/17 04:19:00;;;;;;;31.38;14.77;;;;;;;;;;5024893;28;20049;-75
2023/04/17 04:21:27;;;;;;;31.30;15.18;;;;;;;;;;5024751;28;20141;-76
2023/04/17 04:23:55;;;;;;;31.60;15.55;;;;;;;;;;5026528;28;20149;-76
2023/04/17 04:26:23;;;;;;;35.80;15.55;;;;;;;;;;5012411;28;20056;-76
2023/04/17 04:28:49;;;;;;;31.33;15.27;;;;;;;;;;5004032;28;20054;-76
2023/04/17 04:31:17;;;;;;;33.08;16.00;;;;;;;;;;5019110;28;20490;-76
2023/04/17 04:33:44;;;;;;;34.90;16.25;;;;;;;;;;5025165;28;20154;-75
2023/04/17 04:36:12;;;;;;;35.05;15.80;;;;;;;;;;5025546;28;20046;-76
2023/04/17 04:38:39;;;;;;;35.53;16.42;;;;;;;;;;5025555;28;20085;-75
2023/04/17 04:41:09;;;;;;;40.78;15.55;;;;;;;;;;5025208;28;20081;-76
2023/04/17 04:43:35;;;;;;;35.72;15.00;;;;;;;;;;5022281;28;20140;-75
2023/04/17 04:46:02;;;;;;;34.97;15.45;;;;;;;;;;5023331;28;20064;-76
2023/04/17 04:48:29;;;;;;;34.45;16.85;;;;;;;;;;5024274;28;20164;-76
2023/04/17 04:50:55;;;;;;;36.15;16.60;;;;;;;;;;5024892;28;20141;-76
2023/04/17 04:53:21;;;;;;;38.95;16.30;;;;;;;;;;5015417;28;20825;-76
2023/04/17 04:55:48;;;;;;;38.35;17.40;;;;;;;;;;5021513;28;20061;-76
2023/04/17 04:58:15;;;;;;;40.80;17.25;;;;;;;;;;5023648;28;20058;-76
2023/04/17 05:00:42;;;;;;;37.95;16.63;;;;;;;;;;5024317;28;20057;-76
2023/04/17 05:03:08;;;;;;;36.85;17.00;;;;;;;;;;5023976;28;20054;-76
2023/04/17 05:05:36;;;;;;;33.88;16.75;;;;;;;;;;5024261;28;20053;-76
2023/04/17 05:08:03;;;;;;;39.30;17.50;;;;;;;;;;5023464;28;20068;-76
2023/04/17 05:10:29;;;;;;;36.03;16.42;;;;;;;;;;5016064;28;20059;-76
2023/04/17 05:12:55;;;;;;;37.47;15.50;;;;;;;;;;5004026;28;20054;-76
2023/04/17 05:15:22;;;;;;;37.90;17.15;;;;;;;;;;5016760;28;20057;-76
2023/04/17 05:17:48;;;;;;;37.65;16.60;;;;;;;;;;5022142;28;20061;-77
2023/04/17 05:20:15;;;;;;;38.95;16.65;;;;;;;;;;5017756;28;20050;-77
2023/04/17 05:22:41;;;;;;;37.67;16.70;;;;;;;;;;5025492;28;20054;-77
2023/04/17 05:25:08;;;;;;;36.97;16.75;;;;;;;;;;5024339;28;20138;-77
2023/04/17 05:27:34;;;;;;;39.55;17.60;;;;;;;;;;5022992;28;20065;-78
2023/04/17 05:30:00;;;;;;;38.08;17.70;;;;;;;;;;5019866;28;20050;-77
2023/04/17 05:32:29;;;;;;;40.42;17.58;;;;;;;;;;5007579;28;20062;-77
2023/04/17 05:34:56;;;;;;;37.30;17.27;;;;;;;;;;5008388;28;20464;-78
2023/04/17 05:37:22;;;;;;;36.97;17.15;;;;;;;;;;5014077;28;21026;-77
2023/04/17 05:39:49;;;;;;;38.85;16.88;;;;;;;;;;5011289;28;20509;-77
2023/04/17 05:42:15;;;;;;;38.42;16.88;;;;;;;;;;5023043;28;20134;-77
2023/04/17 05:44:42;;;;;;;36.85;17.33;;;;;;;;;;5018053;28;20077;-77
2023/04/17 05:47:09;;;;;;;38.58;17.88;;;;;;;;;;5037917;22;20719;-77
2023/04/17 05:49:35;;;;;;;39.30;18.30;;;;;;;;;;5061314;28;21060;-77
2023/04/17 05:52:02;;;;;;;41.22;16.95;;;;;;;;;;5063666;28;20081;-77
2023/04/17 05:54:29;;;;;;;36.80;16.00;;;;;;;;;;5067700;28;20052;-78
2023/04/17 05:56:55;;;;;;;39.65;17.38;;;;;;;;;;5066850;28;20179;-78
2023/04/17 05:59:22;;;;;;;37.17;16.67;;;;;;;;;;5069199;28;20137;-77
2023/04/17 06:01:48;;;;;;;39.67;17.25;;;;;;;;;;5062336;28;20058;-77
2023/04/17 06:04:15;;;;;;;38.00;17.25;;;;;;;;;;5059689;28;20129;-77
2023/04/17 06:06:43;;;;;;;38.38;17.23;;;;;;;;;;5064874;28;20087;-77
2023/04/17 06:09:10;;;;;;;39.72;18.50;;;;;;;;;;5071624;28;20618;-78
2023/04/17 06:11:37;;;;;;;44.50;19.30;;;;;;;;;;5068594;28;20053;-78
2023/04/17 06:14:03;;;;;;;43.58;18.45;;;;;;;;;;5053476;28;20522;-78
2023/04/17 06:16:30;;;;;;;38.15;17.77;;;;;;;;;;5064944;28;20048;-78
2023/04/17 06:18:56;;;;;;;38.83;17.92;;;;;;;;;;5057847;28;20053;-78
2023/04/17 06:21:23;;;;;;;38.70;18.13;;;;;;;;;;5065587;28;20570;-77
2023/04/17 06:23:49;;;;;;;39.38;17.48;;;;;;;;;;5067420;28;20902;-77
2023/04/17 06:26:15;;;;;;;44.97;18.83;;;;;;;;;;5062892;28;20053;-76
2023/04/17 06:28:42;;;;;;;36.22;17.30;;;;;;;;;;5067013;28;22361;-78
2023/04/17 06:31:10;;;;;;;46.80;18.23;;;;;;;;;;5067141;28;20905;-76
2023/04/17 06:33:37;;;;;;;40.10;17.48;;;;;;;;;;5063776;28;20065;-78
2023/04/17 06:36:04;;;;;;;41.75;18.88;;;;;;;;;;5068892;28;20096;-77
2023/04/17 06:38:30;;;;;;;42.33;18.55;;;;;;;;;;5064302;28;20096;-77
2023/04/17 06:40:57;;;;;;;40.38;18.15;;;;;;;;;;5051945;28;20045;-76
2023/04/17 06:43:23;;;;;;;48.38;19.13;;;;;;;;;;5046646;28;20516;-76
2023/04/17 06:45:49;;;;;;;48.42;19.20;;;;;;;;;;5059188;28;20052;-75
2023/04/17 06:48:16;;;;;;;46.38;18.52;;;;;;;;;;5054792;28;20053;-77
2023/04/17 06:50:42;;;;;;;44.38;18.08;;;;;;;;;;5055880;28;20063;-75
2023/04/17 06:53:08;;;;;;;42.00;17.83;;;;;;;;;;5056944;28;20057;-75
2023/04/17 06:55:35;;;;;;;42.85;18.90;;;;;;;;;;5064844;28;20136;-75
2023/04/17 06:58:01;;;;;;;46.17;18.77;;;;;;;;;;5063742;28;20057;-77
2023/04/17 07:00:28;;;;;;;44.22;18.75;;;;;;;;;;5043698;28;20441;-77
2023/04/17 07:02:54;;;;;;;49.80;19.80;;;;;;;;;;5059522;28;20053;-77
2023/04/17 07:05:20;;;;;;;50.38;20.95;;;;;;;;;;5052537;28;20167;-76
2023/04/17 07:07:47;;;;;;;50.70;20.50;;;;;;;;;;5059643;28;20083;-76
2023/04/17 07:10:14;;;;;;;41.97;18.65;;;;;;;;;;5059211;28;20056;-76
2023/04/17 07:12:41;;;;;;;45.63;18.98;;;;;;;;;;5061234;28;20534;-76
2023/04/17 07:15:08;;;;;;;41.92;18.85;;;;;;;;;;5059463;28;20064;-76
2023/04/17 07:17:34;;;;;;;45.25;19.05;;;;;;;;;;5055889;28;20608;-76
2023/04/17 07:20:00;;;;;;;43.40;17.50;;;;;;;;;;5054285;28;20624;-76
2023/04/17 07:22:27;;;;;;;43.10;17.85;;;;;;;;;;5058064;28;20053;-77
2023/04/17 07:24:53;;;;;;;36.33;17.08;;;;;;;;;;5054189;28;20057;-77
2023/04/17 07:27:20;;;;;;;38.88;17.73;;;;;;;;;;5058429;28;20056;-76
2023/04/17 07:29:53;;;;;;;39.47;18.42;;;;;;;;;;5057302;28;20060;-77
2023/04/17 07:32:20;;;;;;;37.40;17.15;;;;;;;;;;5059069;28;20071;-77
2023/04/17 07:34:47;;;;;;;35.72;17.13;;;;;;;;;;5060790;28;20135;-75
2023/04/17 07:37:16;;;;;;;41.97;18.38;;;;;;;;;;5055259;28;20503;-76
2023/04/17 07:39:43;;;;;;;37.05;17.50;;;;;;;;;;5054802;28;20767;-77
2023/04/17 07:42:10;;;;;;;36.75;17.10;;;;;;;;;;5058083;28;20086;-76
2023/04/17 07:44:39;;;;;;;36.17;16.02;;;;;;;;;;5051122;28;20614;-77
2023/04/17 07:47:06;;;;;;;40.42;16.63;;;;;;;;;;5053266;28;20054;-76
2023/04/17 07:49:32;;;;;;;38.33;18.23;;;;;;;;;;5058892;28;20526;-76
2023/04/17 07:51:59;;;;;;;38.45;17.63;;;;;;;;;;5060259;28;20063;-76
2023/04/17 07:54:26;;;;;;;41.97;18.45;;;;;;;;;;5047816;28;20053;-77
2023/04/17 07:56:57;;;;;;;40.97;18.20;;;;;;;;;;5060453;28;20053;-76
2023/04/17 07:59:23;;;;;;;41.63;18.35;;;;;;;;;;5059648;28;20072;-77
2023/04/17 08:01:51;;;;;;;39.70;18.33;;;;;;;;;;5055230;28;20052;-76
2023/04/17 08:04:17;;;;;;;39.10;18.85;;;;;;;;;;5045399;28;20053;-75
2023/04/17 08:06:44;;;;;;;38.83;17.25;;;;;;;;;;5064388;28;20148;-76
2023/04/17 08:09:11;;;;;;;35.75;16.85;;;;;;;;;;5065555;28;20063;-77
2023/04/17 08:11:37;;;;;;;40.65;17.92;;;;;;;;;;5055416;28;20053;-76
2023/04/17 08:14:22;;;;;;;37.47;17.15;;;;;;;;;;5054750;28;20076;-77
2023/04/17 08:16:48;;;;;;;34.53;17.50;;;;;;;;;;5055952;28;20057;-77
2023/04/17 08:19:15;;;;;;;39.83;17.48;;;;;;;;;;5062191;28;20063;-74
2023/04/17 08:21:41;;;;;;;32.92;17.30;;;;;;;;;;5058855;28;20111;-76
2023/04/17 08:24:08;;;;;;;31.50;16.02;;;;;;;;;;5063797;28;20088;-76
2023/04/17 08:26:34;;;;;;;38.90;17.00;;;;;;;;;;5063510;28;20085;-76
2023/04/17 08:29:03;;;;;;;38.75;18.50;;;;;;;;;;5065024;28;20581;-77
2023/04/17 08:31:30;;;;;;;37.22;18.27;;;;;;;;;;5060509;28;20057;-75
2023/04/17 08:33:59;;;;;;;34.97;18.52;;;;;;;;;;5063085;28;20091;-77
2023/04/17 08:36:39;;;;;;;33.22;17.38;;;;;;;;;;5064498;28;20060;-75
2023/04/17 08:39:08;;;;;;;34.60;17.92;;;;;;;;;;5066179;28;20534;-76
2023/04/17 08:41:38;;;;;;;34.47;17.88;;;;;;;;;;5058470;28;20061;-75
2023/04/17 08:44:04;;;;;;;35.15;17.98;;;;;;;;;;5065528;28;20103;-76
2023/04/17 08:46:33;;;;;;;32.65;17.20;;;;;;;;;;5061786;28;20133;-76
2023/04/17 08:49:01;;;;;;;32.20;16.50;;;;;;;;;;5063866;28;20052;-76
2023/04/17 08:51:28;;;;;;;37.13;17.80;;;;;;;;;;5063889;28;20072;-76
2023/04/17 08:53:54;;;;;;;34.95;18.60;;;;;;;;;;5063562;28;20524;-77
2023/04/17 08:56:21;;;;;;;34.05;17.95;;;;;;;;;;5060332;28;20135;-77
2023/04/17 08:58:48;;;;;;;39.13;18.42;;;;;;;;;;5062797;28;20121;-77
2023/04/17 09:01:19;;;;;;;34.65;17.77;;;;;;;;;;5063805;28;20053;-76
2023/04/17 09:03:46;;;;;;;31.67;16.98;;;;;;;;;;5049891;28;20053;-75
2023/04/17 09:06:13;;;;;;;34.65;16.95;;;;;;;;;;5050811;28;20067;-76
2023/04/17 09:08:56;;;;;;;33.28;17.63;;;;;;;;;;5059480;28;20057;-76
2023/04/17 09:11:24;;;;;;;31.38;16.55;;;;;;;;;;5044915;28;20061;-77
2023/04/17 09:13:50;;;;;;;37.85;18.40;;;;;;;;;;5058678;28;20078;-76
2023/04/17 09:16:18;;;;;;;29.33;16.10;;;;;;;;;;5064412;28;20057;-77
2023/04/17 09:18:45;;;;;;;35.10;17.88;;;;;;;;;;5060504;28;20127;-77
2023/04/17 09:21:12;;;;;;;33.17;17.02;;;;;;;;;;5054295;28;20191;-76
2023/04/17 09:23:47;;;;;;;33.40;16.45;;;;;;;;;;5062578;28;20069;-77
2023/04/17 09:26:40;;;;;;;30.25;16.33;;;;;;;;;;5065070;28;20057;-76
2023/04/17 09:29:09;;;;;;;29.73;16.48;;;;;;;;;;5056331;28;20093;-76
2023/04/17 09:31:41;;;;;;;29.35;16.63;;;;;;;;;;5039194;28;20080;-76
2023/04/17 09:34:11;;;;;;;30.65;16.75;;;;;;;;;;5063763;28;20095;-76
2023/04/17 09:36:38;;;;;;;29.70;15.85;;;;;;;;;;5060199;28;20048;-77
2023/04/17 09:39:15;;;;;;;28.40;15.55;;;;;;;;;;5057895;28;20870;-76
2023/04/17 09:41:41;;;;;;;27.55;15.82;;;;;;;;;;5076248;28;20056;-77
2023/04/17 09:44:08;;;;;;;27.67;16.08;;;;;;;;;;5054280;28;20059;-77
2023/04/17 09:46:44;;;;;;;25.40;15.25;;;;;;;;;;5062170;28;20065;-76
2023/04/17 09:49:20;;;;;;;26.77;15.25;;;;;;;;;;5049899;28;20053;-76
2023/04/17 09:51:48;;;;;;;26.73;15.77;;;;;;;;;;5057510;28;20126;-76
2023/04/17 09:54:15;;;;;;;26.48;15.60;;;;;;;;;;5059414;28;20041;-78
2023/04/17 09:56:42;;;;;;;27.73;15.27;;;;;;;;;;5068887;28;20504;-77
2023/04/17 09:59:09;;;;;;;30.33;15.68;;;;;;;;;;5052937;28;20065;-76
2023/04/17 10:01:36;;;;;;;27.02;15.60;;;;;;;;;;5062354;28;20053;-77
2023/04/17 10:04:03;;;;;;;27.77;15.95;;;;;;;;;;5064727;28;20053;-75
2023/04/17 10:06:31;;;;;;;24.60;15.15;;;;;;;;;;5063053;28;20532;-76
2023/04/17 10:08:57;;;;;;;27.08;15.70;;;;;;;;;;5058307;28;20535;-77
2023/04/17 10:11:26;;;;;;;28.25;15.57;;;;;;;;;;5056070;28;20057;-77
2023/04/17 10:13:58;;;;;;;26.42;15.63;;;;;;;;;;5045621;28;20064;-76
2023/04/17 10:16:35;;;;;;;28.15;15.68;;;;;;;;;;5057270;28;20842;-77
2023/04/17 10:19:21;;;;;;;26.73;16.45;;;;;;;;;;5057034;28;20065;-76
2023/04/17 10:22:07;;;;;;;27.52;15.73;;;;;;;;;;5043742;28;20409;-77
2023/04/17 10:24:33;;;;;;;28.38;15.90;;;;;;;;;;5051576;28;20052;-78
2023/04/17 10:27:00;;;;;;;25.00;15.93;;;;;;;;;;5066928;28;20067;-78
2023/04/17 10:29:45;;;;;;;26.95;15.95;;;;;;;;;;5063704;28;20045;-77
2023/04/17 10:32:13;;;;;;;26.17;16.05;;;;;;;;;;5054918;28;20057;-77
2023/04/17 10:34:39;;;;;;;24.70;15.75;;;;;;;;;;5055624;28;20131;-77
2023/04/17 10:37:14;;;;;;;26.70;16.70;;;;;;;;;;5057285;28;20057;-76
2023/04/17 10:39:53;;;;;;;26.42;15.35;;;;;;;;;;5050198;28;20060;-77
2023/04/17 10:42:20;;;;;;;23.10;15.07;;;;;;;;;;5049547;28;20076;-77
2023/04/17 10:44:47;;;;;;;26.10;15.70;;;;;;;;;;5053670;28;20511;-75
2023/04/17 10:47:13;;;;;;;22.75;15.00;;;;;;;;;;5056398;28;20633;-76
2023/04/17 10:49:59;;;;;;;26.67;16.25;;;;;;;;;;5056340;28;20092;-76
2023/04/17 10:52:36;;;;;;;25.33;15.68;;;;;;;;;;5045936;28;21020;-76
2023/04/17 10:55:04;;;;;;;27.83;15.65;;;;;;;;;;5046151;28;20054;-76
2023/04/17 10:57:53;;;;;;;25.02;16.23;;;;;;;;;;5042628;28;20154;-77
2023/04/17 11:00:26;;;;;;;23.38;15.40;;;;;;;;;;5057381;28;20104;-77
2023/04/17 11:02:52;;;;;;;27.48;16.15;;;;;;;;;;5063349;28;20045;-75
2023/04/17 11:05:19;;;;;;;24.48;15.98;;;;;;;;;;5061313;28;20337;-77
2023/04/17 11:07:50;;;;;;;25.42;15.68;;;;;;;;;;5050881;28;20059;-76
2023/04/17 11:10:20;;;;;;;24.92;16.10;;;;;;;;;;5042730;28;20049;-75
2023/04/17 11:12:47;;;;;;;25.67;15.43;;;;;;;;;;5043347;28;20068;-75
2023/04/17 11:15:13;;;;;;;29.65;16.70;;;;;;;;;;5048536;28;20147;-77
2023/04/17 11:17:45;;;;;;;26.67;16.40;;;;;;;;;;5062233;28;20049;-76
2023/04/17 11:20:11;;;;;;;26.38;16.92;;;;;;;;;;5063582;28;20064;-77
2023/04/17 11:22:38;;;;;;;24.15;16.52;;;;;;;;;;5064204;28;20049;-76
2023/04/17 11:25:05;;;;;;;27.55;16.63;;;;;;;;;;5058939;28;20054;-76
2023/04/17 11:27:31;;;;;;;23.65;15.82;;;;;;;;;;5052606;28;20152;-79
2023/04/17 11:29:58;;;;;;;29.15;16.45;;;;;;;;;;5059196;28;20057;-77
2023/04/17 11:32:24;;;;;;;26.95;16.80;;;;;;;;;;5066665;28;20059;-77
2023/04/17 11:34:53;;;;;;;26.33;17.17;;;;;;;;;;5066011;28;20053;-77
2023/04/17 11:37:19;;;;;;;25.83;17.10;;;;;;;;;;5053377;28;20054;-77
2023/04/17 11:39:46;;;;;;;24.77;16.52;;;;;;;;;;5066027;28;20079;-76
2023/04/17 11:42:12;;;;;;;24.42;16.42;;;;;;;;;;5066779;28;20060;-77
2023/04/17 11:44:41;;;;;;;24.73;16.92;;;;;;;;;;5065417;28;20231;-76
2023/04/17 11:47:07;;;;;;;29.27;16.73;;;;;;;;;;5056854;28;20770;-76
2023/04/17 11:49:37;;;;;;;24.73;16.15;;;;;;;;;;5045423;28;20053;-75
2023/04/17 11:52:04;;;;;;;25.15;16.05;;;;;;;;;;5064206;28;20061;-76
2023/04/17 11:54:33;;;;;;;23.58;16.48;;;;;;;;;;5066112;28;20526;-76
2023/04/17 11:57:00;;;;;;;25.00;15.40;;;;;;;;;;5061125;28;20823;-77
2023/04/17 11:59:37;;;;;;;25.88;15.48;;;;;;;;;;5066514;28;20872;-77
2023/04/17 12:02:05;;;;;;;24.75;16.20;;;;;;;;;;5060360;28;20067;-76
2023/04/17 12:04:33;;;;;;;29.08;16.70;;;;;;;;;;5067299;28;20079;-76
2023/04/17 12:07:01;;;;;;;23.52;15.77;;;;;;;;;;5057220;28;20060;-76
2023/04/17 12:09:30;;;;;;;22.02;14.98;;;;;;;;;;5065096;28;20156;-76
2023/04/17 12:11:57;;;;;;;22.48;13.80;;;;;;;;;;5058783;28;20060;-76
2023/04/17 12:14:23;;;;;;;22.00;15.15;;;;;;;;;;5048428;28;20062;-76
2023/04/17 12:16:51;;;;;;;22.48;13.98;;;;;;;;;;5047625;28;20049;-75
2023/04/17 12:19:21;;;;;;;23.48;13.80;;;;;;;;;;5051764;28;20052;-75
2023/04/17 12:21:47;;;;;;;21.48;13.60;;;;;;;;;;5058730;28;20057;-75
2023/04/17 12:24:14;;;;;;;20.08;14.05;;;;;;;;;;5061855;28;20975;-77
2023/04/17 12:26:47;;;;;;;20.17;13.45;;;;;;;;;;5076571;28;20053;-77
2023/04/17 12:29:14;;;;;;;21.63;13.85;;;;;;;;;;5055338;28;20156;-76
2023/04/17 12:31:41;;;;;;;18.90;13.18;;;;;;;;;;5062117;28;20180;-77
2023/04/17 12:34:07;;;;;;;20.45;12.40;;;;;;;;;;5064955;28;20111;-77
2023/04/17 12:36:34;;;;;;;19.13;10.73;;;;;;;;;;5063546;28;20053;-78
2023/04/17 12:39:00;;;;;;;14.63;9.35;;;;;;;;;;5061249;28;20507;-77
2023/04/17 12:41:28;;;;;;;15.85;9.15;;;;;;;;;;5062116;28;20045;-79
2023/04/17 12:43:54;;;;;;;22.15;13.30;;;;;;;;;;5072770;28;21005;-79
2023/04/17 12:46:20;;;;;;;18.95;13.48;;;;;;;;;;5057077;28;20053;-77
2023/04/17 12:48:47;;;;;;;19.08;12.98;;;;;;;;;;5054861;28;20992;-76
2023/04/17 12:51:13;;;;;;;17.13;12.23;;;;;;;;;;5063602;28;20514;-77
2023/04/17 12:53:40;;;;;;;17.92;12.10;;;;;;;;;;5064994;28;20049;-76
2023/04/17 12:56:06;;;;;;;20.00;13.48;;;;;;;;;;5054224;28;20048;-76
2023/04/17 12:58:33;;;;;;;19.30;12.98;;;;;;;;;;5058469;28;20048;-79
2023/04/17 13:00:59;;;;;;;19.17;13.35;;;;;;;;;;5045846;28;20061;-76
2023/04/17 13:03:26;;;;;;;19.65;13.15;;;;;;;;;;5043738;28;20152;-77
2023/04/17 13:05:52;;;;;;;18.67;13.57;;;;;;;;;;5055625;28;20060;-77
2023/04/17 13:08:19;;;;;;;19.85;12.73;;;;;;;;;;5058836;28;20060;-77
2023/04/17 13:10:45;;;;;;;19.95;12.65;;;;;;;;;;5049840;28;20064;-77
2023/04/17 13:13:11;;;;;;;16.20;11.40;;;;;;;;;;5054729;28;20061;-76
2023/04/17 13:15:38;;;;;;;13.00;8.52;;;;;;;;;;5062648;28;20053;-77
2023/04/17 13:18:04;;;;;;;13.90;9.50;;;;;;;;;;5061231;28;20791;-76
2023/04/17 13:20:31;;;;;;;14.70;8.68;;;;;;;;;;5057391;28;20517;-77
2023/04/17 13:22:57;;;;;;;9.82;7.03;;;;;;;;;;5062347;28;20052;-77
2023/04/17 13:25:24;;;;;;;11.88;7.65;;;;;;;;;;5061629;28;20064;-76
2023/04/17 13:27:51;;;;;;;13.60;8.18;;;;;;;;;;5043314;28;20060;-76
2023/04/17 13:30:17;;;;;;;13.55;7.97;;;;;;;;;;5047607;28;20524;-76
2023/04/17 13:32:43;;;;;;;14.88;8.55;;;;;;;;;;5051717;28;20107;-76
2023/04/17 13:35:12;;;;;;;14.05;8.77;;;;;;;;;;5049473;28;20140;-75
2023/04/17 13:37:40;;;;;;;15.02;8.20;;;;;;;;;;5053651;28;20518;-77
2023/04/17 13:40:09;;;;;;;12.82;8.35;;;;;;;;;;5063583;28;20111;-76
2023/04/17 13:42:36;;;;;;;18.05;7.53;;;;;;;;;;5063433;28;20059;-77
2023/04/17 13:45:03;;;;;;;13.85;8.23;;;;;;;;;;5051481;28;20140;-76
2023/04/17 13:47:29;;;;;;;12.32;7.57;;;;;;;;;;5064959;28;20053;-76
2023/04/17 13:49:56;;;;;;;12.93;8.40;;;;;;;;;;5063390;28;20165;-76
2023/04/17 13:52:22;;;;;;;12.95;8.63;;;;;;;;;;5065548;28;20052;-76
2023/04/17 13:54:48;;;;;;;13.02;8.38;;;;;;;;;;5061467;28;20045;-76
2023/04/17 13:57:17;;;;;;;14.68;7.88;;;;;;;;;;5063343;28;20061;-76
2023/04/17 13:59:43;;;;;;;13.60;8.25;;;;;;;;;;5066760;28;20153;-76
2023/04/17 14:02:10;;;;;;;11.18;7.38;;;;;;;;;;5061304;28;20531;-77
2023/04/17 14:04:36;;;;;;;11.80;7.82;;;;;;;;;;5064081;28;20122;-76
2023/04/17 14:07:03;;;;;;;14.20;8.38;;;;;;;;;;5051515;28;20058;-76
2023/04/17 14:09:29;;;;;;;11.27;8.02;;;;;;;;;;5059026;28;20056;-76
2023/04/17 14:11:56;;;;;;;13.23;7.15;;;;;;;;;;5062813;28;20057;-79
2023/04/17 14:14:23;;;;;;;15.20;8.13;;;;;;;;;;5053243;28;20562;-77
2023/04/17 14:16:49;;;;;;;14.27;8.50;;;;;;;;;;5063594;28;20136;-76
2023/04/17 14:19:16;;;;;;;13.15;7.90;;;;;;;;;;5045372;28;20053;-77
2023/04/17 14:21:43;;;;;;;12.48;7.60;;;;;;;;;;5043665;28;20545;-76